sensor_id;sensor_type;location;lat;lon;timestamp;P1;durP1;ratioP1;P2;durP2;ratioP2
8397;SDS011;4236;54.504;9.588;2023-04-16T00:01:08;35.87;;;32.73;;
8397;SDS011;4236;54.504;9.588;2023-04-16T00:03:35;38.40;;;35.20;;
8397;SDS011;4236;54.504;9.588;2023-04-16T00:06:04;36.70;;;33.90;;
8397;SDS011;4236;54.504;9.588;2023-04-16T00:08:32;37.70;;;34.70;;
8397;SDS011;4236;54.504;9.588;2023-04-16T00:11:01;36.83;;;33.93;;
8397;SDS011;4236;54.504;9.588;2023-04-16T00:13:28;35.43;;;32.67;;
8397;SDS011;4236;54.504;9.588;2023-04-16T00:15:56;35.47;;;32.77;;
8397;SDS011;4236;54.504;9.588;2023-04-16T00:18:25;36.27;;;33.67;;
8397;SDS011;4236;54.504;9.588;2023-04-16T00:20:53;36.13;;;33.20;;
8397;SDS011;4236;54.504;9.588;2023-04-16T00:23:22;35.03;;;32.33;;
8397;SDS011;4236;54.504;9.588;2023-04-16T00:25:50;34.73;;;32.13;;
8397;SDS011;4236;54.504;9.588;2023-04-16T00:28:19;36.60;;;34.00;;
8397;SDS011;4236;54.504;9.588;2023-04-16T00:30:46;36.03;;;33.43;;
8397;SDS011;4236;54.504;9.588;2023-04-16T00:33:14;34.77;;;32.17;;
8397;SDS011;4236;54.504;9.588;2023-04-16T00:35:45;34.40;;;31.60;;
8397;SDS011;4236;54.504;9.588;2023-04-16T00:38:13;35.53;;;32.80;;
8397;SDS011;4236;54.504;9.588;2023-04-16T00:40:41;34.50;;;31.77;;
8397;SDS011;4236;54.504;9.588;2023-04-16T00:43:08;36.40;;;33.40;;
8397;SDS011;4236;54.504;9.588;2023-04-16T00:45:36;37.00;;;34.10;;
8397;SDS011;4236;54.504;9.588;2023-04-16T00:48:04;36.20;;;33.17;;
8397;SDS011;4236;54.504;9.588;2023-04-16T00:50:32;35.90;;;33.10;;
8397;SDS011;4236;54.504;9.588;2023-04-16T00:53:01;38.00;;;35.00;;
8397;SDS011;4236;54.504;9.588;2023-04-16T00:55:29;37.03;;;34.20;;
8397;SDS011;4236;54.504;9.588;2023-04-16T00:57:57;37.57;;;34.60;;
8397;SDS011;4236;54.504;9.588;2023-04-16T01:00:25;36.33;;;33.67;;
8397;SDS011;4236;54.504;9.588;2023-04-16T01:02:52;37.67;;;34.77;;
8397;SDS011;4236;54.504;9.588;2023-04-16T01:05:21;36.60;;;33.60;;
8397;SDS011;4236;54.504;9.588;2023-04-16T01:07:49;36.50;;;33.37;;
8397;SDS011;4236;54.504;9.588;2023-04-16T01:10:18;38.23;;;34.80;;
8397;SDS011;4236;54.504;9.588;2023-04-16T01:12:46;37.00;;;34.10;;
8397;SDS011;4236;54.504;9.588;2023-04-16T01:15:14;37.60;;;34.60;;
8397;SDS011;4236;54.504;9.588;2023-04-16T01:17:42;35.67;;;32.90;;
8397;SDS011;4236;54.504;9.588;2023-04-16T01:20:12;37.57;;;34.37;;
8397;SDS011;4236;54.504;9.588;2023-04-16T01:22:41;36.13;;;33.30;;
8397;SDS011;4236;54.504;9.588;2023-04-16T01:25:12;37.00;;;34.20;;
8397;SDS011;4236;54.504;9.588;2023-04-16T01:27:40;36.47;;;33.60;;
8397;SDS011;4236;54.504;9.588;2023-04-16T01:30:08;36.00;;;33.00;;
8397;SDS011;4236;54.504;9.588;2023-04-16T01:32:36;35.43;;;32.53;;
8397;SDS011;4236;54.504;9.588;2023-04-16T01:35:04;35.10;;;32.37;;
8397;SDS011;4236;54.504;9.588;2023-04-16T01:37:32;38.20;;;35.07;;
8397;SDS011;4236;54.504;9.588;2023-04-16T01:40:01;36.20;;;33.43;;
8397;SDS011;4236;54.504;9.588;2023-04-16T01:42:29;38.40;;;35.30;;
8397;SDS011;4236;54.504;9.588;2023-04-16T01:44:57;39.57;;;36.47;;
8397;SDS011;4236;54.504;9.588;2023-04-16T01:47:24;38.10;;;34.97;;
8397;SDS011;4236;54.504;9.588;2023-04-16T01:49:52;40.00;;;36.67;;
8397;SDS011;4236;54.504;9.588;2023-04-16T01:52:20;38.57;;;35.20;;
8397;SDS011;4236;54.504;9.588;2023-04-16T01:54:48;39.33;;;35.77;;
8397;SDS011;4236;54.504;9.588;2023-04-16T01:57:17;39.70;;;36.30;;
8397;SDS011;4236;54.504;9.588;2023-04-16T01:59:45;39.37;;;36.27;;
8397;SDS011;4236;54.504;9.588;2023-04-16T02:02:14;39.13;;;36.10;;
8397;SDS011;4236;54.504;9.588;2023-04-16T02:04:43;38.67;;;35.60;;
8397;SDS011;4236;54.504;9.588;2023-04-16T02:07:12;37.03;;;33.83;;
8397;SDS011;4236;54.504;9.588;2023-04-16T02:09:39;37.23;;;34.27;;
8397;SDS011;4236;54.504;9.588;2023-04-16T02:12:07;37.10;;;33.80;;
8397;SDS011;4236;54.504;9.588;2023-04-16T02:14:38;37.23;;;34.40;;
8397;SDS011;4236;54.504;9.588;2023-04-16T02:17:05;37.23;;;33.83;;
8397;SDS011;4236;54.504;9.588;2023-04-16T02:19:33;37.10;;;34.00;;
8397;SDS011;4236;54.504;9.588;2023-04-16T02:22:01;36.37;;;33.27;;
8397;SDS011;4236;54.504;9.588;2023-04-16T02:24:29;36.87;;;34.13;;
8397;SDS011;4236;54.504;9.588;2023-04-16T02:26:57;37.27;;;34.07;;
8397;SDS011;4236;54.504;9.588;2023-04-16T02:29:25;35.50;;;32.60;;
8397;SDS011;4236;54.504;9.588;2023-04-16T02:31:54;38.23;;;34.53;;
8397;SDS011;4236;54.504;9.588;2023-04-16T02:34:22;37.53;;;34.70;;
8397;SDS011;4236;54.504;9.588;2023-04-16T02:36:49;37.33;;;34.47;;
8397;SDS011;4236;54.504;9.588;2023-04-16T02:39:17;37.50;;;34.30;;
8397;SDS011;4236;54.504;9.588;2023-04-16T02:41:45;34.90;;;32.40;;
8397;SDS011;4236;54.504;9.588;2023-04-16T02:44:12;36.67;;;33.77;;
8397;SDS011;4236;54.504;9.588;2023-04-16T02:46:40;39.03;;;35.83;;
8397;SDS011;4236;54.504;9.588;2023-04-16T02:49:09;37.47;;;34.20;;
8397;SDS011;4236;54.504;9.588;2023-04-16T02:51:37;36.30;;;33.40;;
8397;SDS011;4236;54.504;9.588;2023-04-16T02:54:05;38.23;;;35.00;;
8397;SDS011;4236;54.504;9.588;2023-04-16T02:56:32;35.27;;;32.23;;
8397;SDS011;4236;54.504;9.588;2023-04-16T02:59:00;37.10;;;34.27;;
8397;SDS011;4236;54.504;9.588;2023-04-16T03:01:28;36.27;;;33.47;;
8397;SDS011;4236;54.504;9.588;2023-04-16T03:03:56;38.53;;;35.33;;
8397;SDS011;4236;54.504;9.588;2023-04-16T03:06:25;35.90;;;32.90;;
8397;SDS011;4236;54.504;9.588;2023-04-16T03:08:53;37.43;;;34.40;;
8397;SDS011;4236;54.504;9.588;2023-04-16T03:11:20;37.37;;;34.47;;
8397;SDS011;4236;54.504;9.588;2023-04-16T03:13:49;38.80;;;35.60;;
8397;SDS011;4236;54.504;9.588;2023-04-16T03:16:17;35.10;;;32.47;;
8397;SDS011;4236;54.504;9.588;2023-04-16T03:18:44;36.67;;;33.63;;
8397;SDS011;4236;54.504;9.588;2023-04-16T03:21:12;35.00;;;32.30;;
8397;SDS011;4236;54.504;9.588;2023-04-16T03:23:41;36.13;;;33.10;;
8397;SDS011;4236;54.504;9.588;2023-04-16T03:26:09;36.37;;;33.17;;
8397;SDS011;4236;54.504;9.588;2023-04-16T03:28:36;39.10;;;35.83;;
8397;SDS011;4236;54.504;9.588;2023-04-16T03:31:04;37.53;;;34.33;;
8397;SDS011;4236;54.504;9.588;2023-04-16T03:33:32;37.67;;;34.67;;
8397;SDS011;4236;54.504;9.588;2023-04-16T03:35:59;36.07;;;33.27;;
8397;SDS011;4236;54.504;9.588;2023-04-16T03:38:27;35.93;;;33.07;;
8397;SDS011;4236;54.504;9.588;2023-04-16T03:40:56;35.20;;;32.50;;
8397;SDS011;4236;54.504;9.588;2023-04-16T03:43:24;35.97;;;33.30;;
8397;SDS011;4236;54.504;9.588;2023-04-16T03:45:51;35.83;;;33.13;;
8397;SDS011;4236;54.504;9.588;2023-04-16T03:48:19;37.07;;;34.13;;
8397;SDS011;4236;54.504;9.588;2023-04-16T03:50:47;36.63;;;33.57;;
8397;SDS011;4236;54.504;9.588;2023-04-16T03:53:14;38.17;;;35.10;;
8397;SDS011;4236;54.504;9.588;2023-04-16T03:55:42;39.13;;;35.60;;
8397;SDS011;4236;54.504;9.588;2023-04-16T03:58:11;36.43;;;33.67;;
8397;SDS011;4236;54.504;9.588;2023-04-16T04:00:40;35.33;;;32.73;;
8397;SDS011;4236;54.504;9.588;2023-04-16T04:03:07;37.80;;;34.97;;
8397;SDS011;4236;54.504;9.588;2023-04-16T04:05:35;36.57;;;33.93;;
8397;SDS011;4236;54.504;9.588;2023-04-16T04:08:04;38.20;;;35.20;;
8397;SDS011;4236;54.504;9.588;2023-04-16T04:10:32;37.10;;;34.30;;
8397;SDS011;4236;54.504;9.588;2023-04-16T04:13:00;36.10;;;33.33;;
8397;SDS011;4236;54.504;9.588;2023-04-16T04:15:30;35.57;;;32.87;;
8397;SDS011;4236;54.504;9.588;2023-04-16T04:17:58;35.93;;;32.93;;
8397;SDS011;4236;54.504;9.588;2023-04-16T04:20:26;36.40;;;33.53;;
8397;SDS011;4236;54.504;9.588;2023-04-16T04:22:53;37.37;;;34.47;;
8397;SDS011;4236;54.504;9.588;2023-04-16T04:25:21;37.67;;;34.53;;
8397;SDS011;4236;54.504;9.588;2023-04-16T04:27:49;36.57;;;33.53;;
8397;SDS011;4236;54.504;9.588;2023-04-16T04:30:17;38.90;;;35.80;;
8397;SDS011;4236;54.504;9.588;2023-04-16T04:32:46;39.37;;;36.10;;
8397;SDS011;4236;54.504;9.588;2023-04-16T04:35:13;38.37;;;34.80;;
8397;SDS011;4236;54.504;9.588;2023-04-16T04:37:41;39.67;;;36.23;;
8397;SDS011;4236;54.504;9.588;2023-04-16T04:40:09;38.50;;;35.07;;
8397;SDS011;4236;54.504;9.588;2023-04-16T04:42:37;36.80;;;34.00;;
8397;SDS011;4236;54.504;9.588;2023-04-16T04:45:05;38.50;;;35.50;;
8397;SDS011;4236;54.504;9.588;2023-04-16T04:47:34;39.43;;;35.90;;
8397;SDS011;4236;54.504;9.588;2023-04-16T04:50:04;38.80;;;35.90;;
8397;SDS011;4236;54.504;9.588;2023-04-16T04:52:32;38.50;;;35.50;;
8397;SDS011;4236;54.504;9.588;2023-04-16T04:55:00;38.90;;;35.83;;
8397;SDS011;4236;54.504;9.588;2023-04-16T04:57:28;35.73;;;32.83;;
8397;SDS011;4236;54.504;9.588;2023-04-16T04:59:55;36.20;;;33.30;;
8397;SDS011;4236;54.504;9.588;2023-04-16T05:02:23;36.60;;;33.73;;
8397;SDS011;4236;54.504;9.588;2023-04-16T05:04:51;36.90;;;34.00;;
8397;SDS011;4236;54.504;9.588;2023-04-16T05:07:20;38.10;;;35.00;;
8397;SDS011;4236;54.504;9.588;2023-04-16T05:09:48;36.60;;;33.67;;
8397;SDS011;4236;54.504;9.588;2023-04-16T05:12:16;37.80;;;34.30;;
8397;SDS011;4236;54.504;9.588;2023-04-16T05:14:43;35.13;;;32.43;;
8397;SDS011;4236;54.504;9.588;2023-04-16T05:17:11;38.67;;;35.67;;
8397;SDS011;4236;54.504;9.588;2023-04-16T05:19:39;37.37;;;34.70;;
8397;SDS011;4236;54.504;9.588;2023-04-16T05:22:07;39.90;;;36.80;;
8397;SDS011;4236;54.504;9.588;2023-04-16T05:24:36;38.30;;;35.30;;
8397;SDS011;4236;54.504;9.588;2023-04-16T05:27:03;40.50;;;36.93;;
8397;SDS011;4236;54.504;9.588;2023-04-16T05:29:31;37.43;;;34.13;;
8397;SDS011;4236;54.504;9.588;2023-04-16T05:31:59;36.77;;;33.73;;
8397;SDS011;4236;54.504;9.588;2023-04-16T05:34:27;36.53;;;33.73;;
8397;SDS011;4236;54.504;9.588;2023-04-16T05:36:54;37.83;;;34.80;;
8397;SDS011;4236;54.504;9.588;2023-04-16T05:39:22;36.80;;;33.80;;
8397;SDS011;4236;54.504;9.588;2023-04-16T05:41:51;37.53;;;34.53;;
8397;SDS011;4236;54.504;9.588;2023-04-16T05:44:19;39.50;;;36.20;;
8397;SDS011;4236;54.504;9.588;2023-04-16T05:46:46;38.57;;;35.67;;
8397;SDS011;4236;54.504;9.588;2023-04-16T05:49:15;39.37;;;36.13;;
8397;SDS011;4236;54.504;9.588;2023-04-16T05:51:43;38.27;;;35.20;;
8397;SDS011;4236;54.504;9.588;2023-04-16T05:54:11;40.60;;;37.20;;
8397;SDS011;4236;54.504;9.588;2023-04-16T05:56:39;41.20;;;37.80;;
8397;SDS011;4236;54.504;9.588;2023-04-16T05:59:08;38.50;;;35.23;;
8397;SDS011;4236;54.504;9.588;2023-04-16T06:01:36;38.60;;;35.37;;
8397;SDS011;4236;54.504;9.588;2023-04-16T06:04:03;37.57;;;34.40;;
8397;SDS011;4236;54.504;9.588;2023-04-16T06:06:31;38.53;;;35.40;;
8397;SDS011;4236;54.504;9.588;2023-04-16T06:08:59;38.73;;;35.47;;
8397;SDS011;4236;54.504;9.588;2023-04-16T06:11:27;37.33;;;34.30;;
8397;SDS011;4236;54.504;9.588;2023-04-16T06:13:55;37.33;;;34.30;;
8397;SDS011;4236;54.504;9.588;2023-04-16T06:16:24;37.10;;;34.03;;
8397;SDS011;4236;54.504;9.588;2023-04-16T06:18:52;38.73;;;35.30;;
8397;SDS011;4236;54.504;9.588;2023-04-16T06:21:20;37.03;;;34.03;;
8397;SDS011;4236;54.504;9.588;2023-04-16T06:23:48;38.27;;;34.90;;
8397;SDS011;4236;54.504;9.588;2023-04-16T06:26:15;35.33;;;32.50;;
8397;SDS011;4236;54.504;9.588;2023-04-16T06:28:43;37.63;;;34.20;;
8397;SDS011;4236;54.504;9.588;2023-04-16T06:31:11;36.97;;;33.50;;
8397;SDS011;4236;54.504;9.588;2023-04-16T06:33:40;35.47;;;32.70;;
8397;SDS011;4236;54.504;9.588;2023-04-16T06:36:07;38.90;;;35.80;;
8397;SDS011;4236;54.504;9.588;2023-04-16T06:38:36;36.30;;;33.47;;
8397;SDS011;4236;54.504;9.588;2023-04-16T06:41:04;37.13;;;34.13;;
8397;SDS011;4236;54.504;9.588;2023-04-16T06:43:31;37.37;;;34.07;;
8397;SDS011;4236;54.504;9.588;2023-04-16T06:45:59;38.30;;;35.13;;
8397;SDS011;4236;54.504;9.588;2023-04-16T06:48:27;36.80;;;33.90;;
8397;SDS011;4236;54.504;9.588;2023-04-16T06:50:56;37.93;;;34.80;;
8397;SDS011;4236;54.504;9.588;2023-04-16T06:53:24;36.40;;;33.80;;
8397;SDS011;4236;54.504;9.588;2023-04-16T06:55:52;36.40;;;33.50;;
8397;SDS011;4236;54.504;9.588;2023-04-16T06:58:20;36.97;;;34.07;;
8397;SDS011;4236;54.504;9.588;2023-04-16T07:00:48;36.90;;;33.90;;
8397;SDS011;4236;54.504;9.588;2023-04-16T07:03:15;39.40;;;36.50;;
8397;SDS011;4236;54.504;9.588;2023-04-16T07:05:43;37.53;;;34.70;;
8397;SDS011;4236;54.504;9.588;2023-04-16T07:08:12;38.10;;;34.90;;
8397;SDS011;4236;54.504;9.588;2023-04-16T07:10:40;37.37;;;34.17;;
8397;SDS011;4236;54.504;9.588;2023-04-16T07:13:08;38.07;;;35.03;;
8397;SDS011;4236;54.504;9.588;2023-04-16T07:15:36;36.47;;;33.60;;
8397;SDS011;4236;54.504;9.588;2023-04-16T07:18:03;39.00;;;35.70;;
8397;SDS011;4236;54.504;9.588;2023-04-16T07:20:31;36.67;;;33.50;;
8397;SDS011;4236;54.504;9.588;2023-04-16T07:22:59;36.30;;;33.50;;
8397;SDS011;4236;54.504;9.588;2023-04-16T07:25:28;37.63;;;34.60;;
8397;SDS011;4236;54.504;9.588;2023-04-16T07:27:55;37.50;;;34.50;;
8397;SDS011;4236;54.504;9.588;2023-04-16T07:30:23;37.40;;;34.33;;
8397;SDS011;4236;54.504;9.588;2023-04-16T07:32:57;37.43;;;34.20;;
8397;SDS011;4236;54.504;9.588;2023-04-16T07:35:25;39.60;;;36.40;;
8397;SDS011;4236;54.504;9.588;2023-04-16T07:37:53;36.93;;;33.70;;
8397;SDS011;4236;54.504;9.588;2023-04-16T07:40:21;36.60;;;33.70;;
8397;SDS011;4236;54.504;9.588;2023-04-16T07:42:51;38.33;;;34.70;;
8397;SDS011;4236;54.504;9.588;2023-04-16T07:45:19;35.67;;;32.77;;
8397;SDS011;4236;54.504;9.588;2023-04-16T07:47:47;34.53;;;31.93;;
8397;SDS011;4236;54.504;9.588;2023-04-16T07:50:14;36.27;;;33.47;;
8397;SDS011;4236;54.504;9.588;2023-04-16T07:52:44;35.60;;;32.93;;
8397;SDS011;4236;54.504;9.588;2023-04-16T07:55:12;35.13;;;32.23;;
8397;SDS011;4236;54.504;9.588;2023-04-16T07:57:40;36.40;;;33.57;;
8397;SDS011;4236;54.504;9.588;2023-04-16T08:00:10;36.47;;;33.57;;
8397;SDS011;4236;54.504;9.588;2023-04-16T08:02:38;36.27;;;33.40;;
8397;SDS011;4236;54.504;9.588;2023-04-16T08:05:07;35.77;;;32.87;;
8397;SDS011;4236;54.504;9.588;2023-04-16T08:07:35;37.13;;;34.17;;
8397;SDS011;4236;54.504;9.588;2023-04-16T08:10:04;35.10;;;32.50;;
8397;SDS011;4236;54.504;9.588;2023-04-16T08:12:32;36.70;;;33.20;;
8397;SDS011;4236;54.504;9.588;2023-04-16T08:15:00;34.97;;;32.10;;
8397;SDS011;4236;54.504;9.588;2023-04-16T08:17:29;38.60;;;35.80;;
8397;SDS011;4236;54.504;9.588;2023-04-16T08:19:58;34.33;;;31.70;;
8397;SDS011;4236;54.504;9.588;2023-04-16T08:22:27;35.70;;;32.90;;
8397;SDS011;4236;54.504;9.588;2023-04-16T08:24:54;35.23;;;32.33;;
8397;SDS011;4236;54.504;9.588;2023-04-16T08:27:22;35.87;;;33.07;;
8397;SDS011;4236;54.504;9.588;2023-04-16T08:29:50;36.20;;;33.23;;
8397;SDS011;4236;54.504;9.588;2023-04-16T08:32:17;34.50;;;31.80;;
8397;SDS011;4236;54.504;9.588;2023-04-16T08:34:47;34.23;;;31.83;;
8397;SDS011;4236;54.504;9.588;2023-04-16T08:37:14;33.40;;;30.90;;
8397;SDS011;4236;54.504;9.588;2023-04-16T08:39:42;35.03;;;32.33;;
8397;SDS011;4236;54.504;9.588;2023-04-16T08:42:11;35.47;;;32.63;;
8397;SDS011;4236;54.504;9.588;2023-04-16T08:44:42;36.43;;;33.23;;
8397;SDS011;4236;54.504;9.588;2023-04-16T08:47:14;36.40;;;33.10;;
8397;SDS011;4236;54.504;9.588;2023-04-16T08:49:43;36.20;;;33.20;;
8397;SDS011;4236;54.504;9.588;2023-04-16T08:52:14;36.10;;;33.10;;
8397;SDS011;4236;54.504;9.588;2023-04-16T08:54:47;34.90;;;32.30;;
8397;SDS011;4236;54.504;9.588;2023-04-16T08:57:22;35.80;;;33.10;;
8397;SDS011;4236;54.504;9.588;2023-04-16T08:59:53;31.40;;;29.20;;
8397;SDS011;4236;54.504;9.588;2023-04-16T09:02:22;30.70;;;28.60;;
8397;SDS011;4236;54.504;9.588;2023-04-16T09:04:53;33.13;;;30.63;;
8397;SDS011;4236;54.504;9.588;2023-04-16T09:07:23;33.23;;;30.73;;
8397;SDS011;4236;54.504;9.588;2023-04-16T09:09:53;32.53;;;30.27;;
8397;SDS011;4236;54.504;9.588;2023-04-16T09:12:22;33.50;;;30.97;;
8397;SDS011;4236;54.504;9.588;2023-04-16T09:14:50;32.50;;;29.73;;
8397;SDS011;4236;54.504;9.588;2023-04-16T09:17:18;32.70;;;30.17;;
8397;SDS011;4236;54.504;9.588;2023-04-16T09:19:46;32.53;;;30.00;;
8397;SDS011;4236;54.504;9.588;2023-04-16T09:22:14;30.27;;;28.03;;
8397;SDS011;4236;54.504;9.588;2023-04-16T09:24:43;30.80;;;28.63;;
8397;SDS011;4236;54.504;9.588;2023-04-16T09:27:11;31.23;;;29.03;;
8397;SDS011;4236;54.504;9.588;2023-04-16T09:29:39;30.23;;;27.70;;
8397;SDS011;4236;54.504;9.588;2023-04-16T09:32:07;29.23;;;27.00;;
8397;SDS011;4236;54.504;9.588;2023-04-16T09:37:22;30.37;;;28.07;;
8397;SDS011;4236;54.504;9.588;2023-04-16T09:39:53;29.03;;;26.60;;
8397;SDS011;4236;54.504;9.588;2023-04-16T09:42:23;29.30;;;27.10;;
8397;SDS011;4236;54.504;9.588;2023-04-16T09:44:52;26.63;;;24.73;;
8397;SDS011;4236;54.504;9.588;2023-04-16T09:47:24;28.07;;;26.00;;
8397;SDS011;4236;54.504;9.588;2023-04-16T09:49:52;29.33;;;26.97;;
8397;SDS011;4236;54.504;9.588;2023-04-16T09:52:25;27.33;;;25.20;;
8397;SDS011;4236;54.504;9.588;2023-04-16T09:54:54;27.40;;;25.20;;
8397;SDS011;4236;54.504;9.588;2023-04-16T09:57:22;28.80;;;26.53;;
8397;SDS011;4236;54.504;9.588;2023-04-16T09:59:51;27.53;;;25.43;;
8397;SDS011;4236;54.504;9.588;2023-04-16T10:02:19;30.33;;;27.63;;
8397;SDS011;4236;54.504;9.588;2023-04-16T10:04:49;28.00;;;25.60;;
8397;SDS011;4236;54.504;9.588;2023-04-16T10:07:18;28.27;;;25.50;;
8397;SDS011;4236;54.504;9.588;2023-04-16T10:09:46;29.53;;;27.30;;
8397;SDS011;4236;54.504;9.588;2023-04-16T10:12:16;26.40;;;24.70;;
8397;SDS011;4236;54.504;9.588;2023-04-16T10:14:44;26.70;;;24.57;;
8397;SDS011;4236;54.504;9.588;2023-04-16T10:17:15;25.60;;;23.27;;
8397;SDS011;4236;54.504;9.588;2023-04-16T10:19:43;26.40;;;24.07;;
8397;SDS011;4236;54.504;9.588;2023-04-16T10:22:11;28.23;;;26.23;;
8397;SDS011;4236;54.504;9.588;2023-04-16T10:24:39;27.53;;;24.77;;
8397;SDS011;4236;54.504;9.588;2023-04-16T10:27:07;28.67;;;26.43;;
8397;SDS011;4236;54.504;9.588;2023-04-16T10:29:37;26.67;;;24.67;;
8397;SDS011;4236;54.504;9.588;2023-04-16T10:32:05;29.20;;;27.00;;
8397;SDS011;4236;54.504;9.588;2023-04-16T10:34:33;26.03;;;24.13;;
8397;SDS011;4236;54.504;9.588;2023-04-16T10:37:01;25.50;;;23.70;;
8397;SDS011;4236;54.504;9.588;2023-04-16T10:39:29;27.50;;;25.20;;
8397;SDS011;4236;54.504;9.588;2023-04-16T10:42:06;28.87;;;26.60;;
8397;SDS011;4236;54.504;9.588;2023-04-16T10:44:35;26.50;;;24.57;;
8397;SDS011;4236;54.504;9.588;2023-04-16T10:47:08;25.90;;;23.50;;
8397;SDS011;4236;54.504;9.588;2023-04-16T10:49:37;28.07;;;25.80;;
8397;SDS011;4236;54.504;9.588;2023-04-16T10:52:07;26.00;;;24.10;;
8397;SDS011;4236;54.504;9.588;2023-04-16T10:54:37;26.57;;;24.43;;
8397;SDS011;4236;54.504;9.588;2023-04-16T10:57:06;25.27;;;22.97;;
8397;SDS011;4236;54.504;9.588;2023-04-16T10:59:37;26.97;;;24.37;;
8397;SDS011;4236;54.504;9.588;2023-04-16T11:02:06;26.80;;;24.30;;
8397;SDS011;4236;54.504;9.588;2023-04-16T11:04:36;25.93;;;24.07;;
8397;SDS011;4236;54.504;9.588;2023-04-16T11:07:05;26.97;;;24.70;;
8397;SDS011;4236;54.504;9.588;2023-04-16T11:09:46;27.57;;;25.30;;
8397;SDS011;4236;54.504;9.588;2023-04-16T11:12:19;27.33;;;25.03;;
8397;SDS011;4236;54.504;9.588;2023-04-16T11:14:49;26.43;;;24.33;;
8397;SDS011;4236;54.504;9.588;2023-04-16T11:17:18;26.13;;;23.93;;
8397;SDS011;4236;54.504;9.588;2023-04-16T11:19:46;24.80;;;22.80;;
8397;SDS011;4236;54.504;9.588;2023-04-16T11:22:15;26.67;;;24.47;;
8397;SDS011;4236;54.504;9.588;2023-04-16T11:24:46;25.77;;;23.80;;
8397;SDS011;4236;54.504;9.588;2023-04-16T11:27:14;26.80;;;24.50;;
8397;SDS011;4236;54.504;9.588;2023-04-16T11:29:41;26.77;;;24.40;;
8397;SDS011;4236;54.504;9.588;2023-04-16T11:32:20;27.03;;;24.63;;
8397;SDS011;4236;54.504;9.588;2023-04-16T11:34:48;26.73;;;24.23;;
8397;SDS011;4236;54.504;9.588;2023-04-16T11:37:18;25.60;;;23.60;;
8397;SDS011;4236;54.504;9.588;2023-04-16T11:39:50;25.50;;;23.50;;
8397;SDS011;4236;54.504;9.588;2023-04-16T11:42:19;27.10;;;24.90;;
8397;SDS011;4236;54.504;9.588;2023-04-16T11:44:52;26.33;;;24.40;;
8397;SDS011;4236;54.504;9.588;2023-04-16T11:47:23;27.23;;;24.83;;
8397;SDS011;4236;54.504;9.588;2023-04-16T11:49:51;26.17;;;24.17;;
8397;SDS011;4236;54.504;9.588;2023-04-16T11:52:25;24.60;;;22.80;;
8397;SDS011;4236;54.504;9.588;2023-04-16T11:54:53;28.60;;;26.10;;
8397;SDS011;4236;54.504;9.588;2023-04-16T11:57:25;25.40;;;23.40;;
8397;SDS011;4236;54.504;9.588;2023-04-16T11:59:53;27.10;;;24.50;;
8397;SDS011;4236;54.504;9.588;2023-04-16T12:02:37;26.43;;;24.13;;
8397;SDS011;4236;54.504;9.588;2023-04-16T12:05:06;26.23;;;24.13;;
8397;SDS011;4236;54.504;9.588;2023-04-16T12:07:52;25.50;;;23.40;;
8397;SDS011;4236;54.504;9.588;2023-04-16T12:10:20;25.87;;;23.83;;
8397;SDS011;4236;54.504;9.588;2023-04-16T12:12:48;26.20;;;23.90;;
8397;SDS011;4236;54.504;9.588;2023-04-16T12:15:16;25.50;;;22.97;;
8397;SDS011;4236;54.504;9.588;2023-04-16T12:17:45;25.30;;;23.00;;
8397;SDS011;4236;54.504;9.588;2023-04-16T12:20:13;24.07;;;21.87;;
8397;SDS011;4236;54.504;9.588;2023-04-16T12:22:43;24.50;;;22.60;;
8397;SDS011;4236;54.504;9.588;2023-04-16T12:25:12;24.50;;;22.50;;
8397;SDS011;4236;54.504;9.588;2023-04-16T12:27:42;25.53;;;23.40;;
8397;SDS011;4236;54.504;9.588;2023-04-16T12:30:12;25.27;;;23.20;;
8397;SDS011;4236;54.504;9.588;2023-04-16T12:32:42;23.70;;;22.00;;
8397;SDS011;4236;54.504;9.588;2023-04-16T12:35:20;25.03;;;22.83;;
8397;SDS011;4236;54.504;9.588;2023-04-16T12:37:56;27.50;;;25.00;;
8397;SDS011;4236;54.504;9.588;2023-04-16T12:40:23;25.80;;;23.73;;
8397;SDS011;4236;54.504;9.588;2023-04-16T12:42:51;25.43;;;23.40;;
8397;SDS011;4236;54.504;9.588;2023-04-16T12:45:19;26.80;;;24.60;;
8397;SDS011;4236;54.504;9.588;2023-04-16T12:47:46;27.07;;;24.83;;
8397;SDS011;4236;54.504;9.588;2023-04-16T12:50:17;27.47;;;25.10;;
8397;SDS011;4236;54.504;9.588;2023-04-16T12:52:44;26.97;;;24.37;;
8397;SDS011;4236;54.504;9.588;2023-04-16T12:55:12;24.93;;;22.73;;
8397;SDS011;4236;54.504;9.588;2023-04-16T12:57:40;26.97;;;24.63;;
8397;SDS011;4236;54.504;9.588;2023-04-16T13:00:08;28.00;;;25.30;;
8397;SDS011;4236;54.504;9.588;2023-04-16T13:02:36;25.70;;;23.60;;
8397;SDS011;4236;54.504;9.588;2023-04-16T13:05:04;24.97;;;22.80;;
8397;SDS011;4236;54.504;9.588;2023-04-16T13:07:34;29.60;;;26.37;;
8397;SDS011;4236;54.504;9.588;2023-04-16T13:10:02;32.47;;;29.60;;
8397;SDS011;4236;54.504;9.588;2023-04-16T13:12:29;35.70;;;32.40;;
8397;SDS011;4236;54.504;9.588;2023-04-16T13:14:57;32.73;;;29.43;;
8397;SDS011;4236;54.504;9.588;2023-04-16T13:17:25;24.73;;;22.73;;
8397;SDS011;4236;54.504;9.588;2023-04-16T13:19:53;25.20;;;23.20;;
8397;SDS011;4236;54.504;9.588;2023-04-16T13:22:20;24.93;;;23.00;;
8397;SDS011;4236;54.504;9.588;2023-04-16T13:24:49;24.93;;;22.33;;
8397;SDS011;4236;54.504;9.588;2023-04-16T13:27:17;24.00;;;22.00;;
8397;SDS011;4236;54.504;9.588;2023-04-16T13:29:45;25.43;;;23.43;;
8397;SDS011;4236;54.504;9.588;2023-04-16T13:32:13;26.33;;;23.93;;
8397;SDS011;4236;54.504;9.588;2023-04-16T13:34:41;25.60;;;23.40;;
8397;SDS011;4236;54.504;9.588;2023-04-16T13:37:08;27.37;;;24.10;;
8397;SDS011;4236;54.504;9.588;2023-04-16T13:39:36;24.47;;;22.50;;
8397;SDS011;4236;54.504;9.588;2023-04-16T13:42:05;24.70;;;22.90;;
8397;SDS011;4236;54.504;9.588;2023-04-16T13:44:33;25.53;;;23.33;;
8397;SDS011;4236;54.504;9.588;2023-04-16T13:47:00;23.87;;;22.07;;
8397;SDS011;4236;54.504;9.588;2023-04-16T13:49:28;24.20;;;22.37;;
8397;SDS011;4236;54.504;9.588;2023-04-16T13:52:01;25.27;;;23.13;;
8397;SDS011;4236;54.504;9.588;2023-04-16T13:54:28;25.03;;;23.00;;
8397;SDS011;4236;54.504;9.588;2023-04-16T13:56:56;24.83;;;22.83;;
8397;SDS011;4236;54.504;9.588;2023-04-16T13:59:25;26.00;;;23.63;;
8397;SDS011;4236;54.504;9.588;2023-04-16T14:01:53;25.87;;;23.87;;
8397;SDS011;4236;54.504;9.588;2023-04-16T14:04:20;25.60;;;23.50;;
8397;SDS011;4236;54.504;9.588;2023-04-16T14:06:48;23.50;;;21.67;;
8397;SDS011;4236;54.504;9.588;2023-04-16T14:09:16;23.73;;;21.47;;
8397;SDS011;4236;54.504;9.588;2023-04-16T14:11:44;24.80;;;22.70;;
8397;SDS011;4236;54.504;9.588;2023-04-16T14:14:12;25.30;;;22.77;;
8397;SDS011;4236;54.504;9.588;2023-04-16T14:16:41;23.53;;;21.67;;
8397;SDS011;4236;54.504;9.588;2023-04-16T14:19:09;23.90;;;21.70;;
8397;SDS011;4236;54.504;9.588;2023-04-16T14:21:37;23.23;;;21.40;;
8397;SDS011;4236;54.504;9.588;2023-04-16T14:24:05;25.20;;;23.00;;
8397;SDS011;4236;54.504;9.588;2023-04-16T14:26:34;24.87;;;22.87;;
8397;SDS011;4236;54.504;9.588;2023-04-16T14:29:01;21.70;;;20.00;;
8397;SDS011;4236;54.504;9.588;2023-04-16T14:31:30;23.37;;;21.17;;
8397;SDS011;4236;54.504;9.588;2023-04-16T14:34:00;23.90;;;21.80;;
8397;SDS011;4236;54.504;9.588;2023-04-16T14:36:27;22.50;;;20.17;;
8397;SDS011;4236;54.504;9.588;2023-04-16T14:38:56;24.37;;;22.03;;
8397;SDS011;4236;54.504;9.588;2023-04-16T14:41:24;23.73;;;21.43;;
8397;SDS011;4236;54.504;9.588;2023-04-16T14:43:52;24.50;;;22.60;;
8397;SDS011;4236;54.504;9.588;2023-04-16T14:46:19;25.70;;;23.77;;
8397;SDS011;4236;54.504;9.588;2023-04-16T14:48:47;24.37;;;22.20;;
8397;SDS011;4236;54.504;9.588;2023-04-16T14:51:16;22.50;;;20.70;;
8397;SDS011;4236;54.504;9.588;2023-04-16T14:53:44;24.73;;;22.33;;
8397;SDS011;4236;54.504;9.588;2023-04-16T14:56:11;24.40;;;22.20;;
8397;SDS011;4236;54.504;9.588;2023-04-16T14:58:39;22.90;;;20.57;;